createdAt,value
2023-03-14T00:00:17.938Z,3.17
2023-03-14T00:02:44.957Z,3.25
2023-03-14T00:05:11.551Z,3.42
2023-03-14T00:07:39.618Z,3.20
2023-03-14T00:10:09.860Z,3.22
2023-03-14T00:12:36.372Z,3.33
2023-03-14T00:15:04.434Z,3.38
2023-03-14T00:17:31.518Z,3.13
2023-03-14T00:20:04.182Z,3.45
2023-03-14T00:22:32.306Z,3.92
2023-03-14T00:24:58.653Z,4.20
2023-03-14T00:27:25.018Z,3.47
2023-03-14T00:29:51.951Z,3.55
2023-03-14T00:32:18.411Z,3.40
2023-03-14T00:34:44.807Z,3.58
2023-03-14T00:37:11.183Z,3.35
2023-03-14T00:39:38.615Z,3.38
2023-03-14T00:42:05.082Z,3.22
2023-03-14T00:44:32.675Z,4.15
2023-03-14T00:46:59.174Z,3.22
2023-03-14T00:49:25.827Z,3.25
2023-03-14T00:51:52.737Z,3.45
2023-03-14T00:54:20.400Z,2.83
2023-03-14T00:56:46.802Z,3.25
2023-03-14T00:59:13.280Z,2.85
2023-03-14T01:01:40.250Z,2.95
2023-03-14T01:04:07.105Z,3.20
2023-03-14T01:06:33.500Z,3.47
2023-03-14T01:09:00.726Z,3.50
2023-03-14T01:11:33.472Z,3.25
2023-03-14T01:14:01.028Z,3.60
2023-03-14T01:16:30.991Z,3.50
2023-03-14T01:19:09.202Z,3.22
2023-03-14T01:21:39.469Z,3.50
2023-03-14T01:24:07.282Z,3.40
2023-03-14T01:26:36.521Z,2.83
2023-03-14T01:29:04.985Z,2.95
2023-03-14T01:31:33.749Z,3.85
2023-03-14T01:34:00.281Z,3.40
2023-03-14T01:36:29.814Z,3.55
2023-03-14T01:38:57.123Z,2.88
2023-03-14T01:41:25.840Z,3.50
2023-03-14T01:43:54.185Z,3.97
2023-03-14T01:46:32.924Z,3.55
2023-03-14T01:49:15.000Z,3.70
2023-03-14T01:51:50.206Z,3.78
2023-03-14T01:54:34.592Z,3.15
2023-03-14T01:57:16.574Z,3.95
2023-03-14T01:59:49.643Z,3.55
2023-03-14T02:02:16.606Z,3.80
2023-03-14T02:04:43.897Z,3.65
2023-03-14T02:07:16.922Z,3.67
2023-03-14T02:09:53.615Z,3.38
2023-03-14T02:12:24.758Z,3.90
2023-03-14T02:15:06.868Z,3.72
2023-03-14T02:17:50.139Z,3.90
2023-03-14T02:20:30.393Z,4.93
2023-03-14T02:22:58.360Z,4.03
2023-03-14T02:25:41.746Z,3.80
2023-03-14T02:28:08.427Z,3.70
2023-03-14T02:30:36.224Z,4.10
2023-03-14T02:33:03.672Z,3.45
2023-03-14T02:35:36.320Z,3.70
2023-03-14T02:38:25.524Z,3.70
2023-03-14T02:40:52.126Z,3.67
2023-03-14T02:43:18.656Z,3.97
2023-03-14T02:45:52.102Z,3.90
2023-03-14T02:48:29.054Z,3.55
2023-03-14T02:50:58.507Z,4.00
2023-03-14T02:53:29.004Z,4.38
2023-03-14T02:55:58.228Z,3.60
2023-03-14T02:58:25.710Z,3.50
2023-03-14T03:00:58.701Z,4.28
2023-03-14T03:03:25.324Z,3.92
2023-03-14T03:05:53.749Z,3.58
2023-03-14T03:08:22.220Z,4.22
2023-03-14T03:10:52.810Z,4.20
2023-03-14T03:13:30.258Z,3.50
2023-03-14T03:16:02.596Z,4.15
2023-03-14T03:18:29.062Z,3.75
2023-03-14T03:20:55.436Z,3.47
2023-03-14T03:23:22.879Z,4.13
2023-03-14T03:25:51.315Z,3.72
2023-03-14T03:28:18.323Z,3.67
2023-03-14T03:30:45.344Z,4.13
2023-03-14T03:33:13.355Z,3.85
2023-03-14T03:35:51.046Z,3.67
2023-03-14T03:38:23.264Z,3.97
2023-03-14T03:40:52.909Z,3.70
2023-03-14T03:43:20.314Z,3.72
2023-03-14T03:45:49.042Z,3.33
2023-03-14T03:48:15.447Z,3.90
2023-03-14T03:50:46.681Z,4.72
2023-03-14T03:53:17.829Z,4.10
2023-03-14T03:55:50.249Z,3.85
2023-03-14T03:58:16.673Z,3.38
2023-03-14T04:00:43.081Z,3.53
2023-03-14T04:03:09.487Z,3.70
2023-03-14T04:05:36.267Z,3.67
2023-03-14T04:08:07.970Z,3.83
2023-03-14T04:10:37.869Z,3.70
2023-03-14T04:13:13.666Z,4.50
2023-03-14T04:15:42.479Z,4.10
2023-03-14T04:18:15.127Z,3.90
2023-03-14T04:20:42.882Z,3.80
2023-03-14T04:23:10.927Z,4.05
2023-03-14T04:25:37.739Z,3.42
2023-03-14T04:28:05.320Z,3.47
2023-03-14T04:30:34.291Z,3.90
2023-03-14T04:33:08.138Z,3.95
2023-03-14T04:35:38.386Z,4.10
2023-03-14T04:38:09.006Z,4.25
2023-03-14T04:40:38.557Z,4.10
2023-03-14T04:43:06.375Z,3.90
2023-03-14T04:45:33.848Z,3.47
2023-03-14T04:48:02.772Z,3.95
2023-03-14T04:50:29.924Z,4.20
2023-03-14T04:52:56.381Z,4.68
2023-03-14T04:55:24.435Z,4.57
2023-03-14T04:57:52.266Z,4.00
2023-03-14T05:00:21.609Z,3.80
2023-03-14T05:03:10.230Z,3.97
2023-03-14T05:05:51.489Z,4.18
2023-03-14T05:08:36.888Z,4.55
2023-03-14T05:11:21.872Z,4.18
2023-03-14T05:14:06.782Z,3.75
2023-03-14T05:16:43.814Z,3.97
2023-03-14T05:19:18.050Z,4.00
2023-03-14T05:22:10.024Z,3.80
2023-03-14T05:24:49.528Z,3.97
2023-03-14T05:27:38.885Z,4.07
2023-03-14T05:30:18.871Z,5.03
2023-03-14T05:33:11.394Z,4.28
2023-03-14T05:36:04.225Z,4.97
2023-03-14T05:38:41.978Z,4.70
2023-03-14T05:41:22.793Z,4.22
2023-03-14T05:44:00.958Z,4.60
2023-03-14T05:46:41.296Z,4.68
2023-03-14T05:49:24.990Z,4.75
2023-03-14T05:52:00.492Z,4.55
2023-03-14T05:54:54.822Z,4.32
2023-03-14T05:57:36.640Z,4.85
2023-03-14T06:00:06.368Z,4.82
2023-03-14T06:02:52.800Z,6.03
2023-03-14T06:05:24.148Z,5.97
2023-03-14T06:07:56.251Z,6.70
2023-03-14T06:10:23.130Z,6.88
2023-03-14T06:12:49.552Z,6.47
2023-03-14T06:15:16.004Z,7.55
2023-03-14T06:17:43.749Z,6.88
2023-03-14T06:20:13.234Z,6.95
2023-03-14T06:22:41.268Z,6.18
2023-03-14T06:25:08.942Z,5.45
2023-03-14T06:27:35.577Z,6.10
2023-03-14T06:30:03.047Z,6.03
2023-03-14T06:32:31.789Z,5.32
2023-03-14T06:35:02.396Z,5.47
2023-03-14T06:37:33.244Z,5.40
2023-03-14T06:39:59.672Z,5.85
2023-03-14T06:42:45.869Z,5.50
2023-03-14T06:45:15.368Z,6.13
2023-03-14T06:47:42.171Z,5.03
2023-03-14T06:50:09.694Z,6.45
2023-03-14T06:52:37.036Z,4.85
2023-03-14T06:55:04.336Z,5.07
2023-03-14T06:57:31.443Z,4.43
2023-03-14T06:59:58.215Z,4.30
2023-03-14T07:02:36.076Z,4.15
2023-03-14T07:05:12.423Z,4.35
2023-03-14T07:07:39.165Z,4.28
2023-03-14T07:10:06.120Z,3.97
2023-03-14T07:12:32.521Z,3.13
2023-03-14T07:15:05.710Z,4.00
2023-03-14T07:17:38.737Z,3.65
2023-03-14T07:20:08.210Z,3.35
2023-03-14T07:22:35.073Z,3.10
2023-03-14T07:25:01.640Z,3.03
2023-03-14T07:27:28.172Z,3.20
2023-03-14T07:29:54.587Z,3.00
2023-03-14T07:32:21.082Z,2.88
2023-03-14T07:34:48.394Z,2.78
2023-03-14T07:37:14.831Z,3.13
2023-03-14T07:39:41.406Z,2.70
2023-03-14T07:42:15.859Z,3.13
2023-03-14T07:44:59.122Z,2.90
2023-03-14T07:47:25.748Z,2.92
2023-03-14T07:49:52.131Z,3.40
2023-03-14T07:52:18.482Z,3.22
2023-03-14T07:54:44.948Z,3.00
2023-03-14T07:57:11.423Z,2.65
2023-03-14T07:59:37.981Z,2.78
2023-03-14T08:02:06.546Z,2.60
2023-03-14T08:04:33.799Z,2.15
2023-03-14T08:07:00.510Z,2.20
2023-03-14T08:09:27.425Z,1.80
2023-03-14T08:11:53.794Z,2.30
2023-03-14T08:14:20.178Z,2.13
2023-03-14T08:16:46.587Z,2.70
2023-03-14T08:19:12.954Z,1.70
2023-03-14T08:21:39.344Z,2.20
2023-03-14T08:24:05.793Z,2.30
2023-03-14T08:26:32.246Z,2.00
2023-03-14T08:28:58.668Z,2.28
2023-03-14T08:31:25.366Z,2.05
2023-03-14T08:33:53.105Z,2.60
2023-03-14T08:36:22.433Z,1.98
2023-03-14T08:38:50.290Z,2.08
2023-03-14T08:41:16.659Z,2.70
2023-03-14T08:43:43.006Z,2.67
2023-03-14T08:46:09.421Z,2.83
2023-03-14T08:48:35.889Z,2.72
2023-03-14T08:51:14.769Z,2.58
2023-03-14T08:53:42.103Z,2.97
2023-03-14T08:56:10.775Z,3.47
2023-03-14T08:58:38.839Z,3.22
2023-03-14T09:01:06.729Z,3.50
2023-03-14T09:03:33.199Z,3.55
2023-03-14T09:06:06.727Z,3.97
2023-03-14T09:08:33.262Z,3.95
2023-03-14T09:10:59.656Z,4.07
2023-03-14T09:13:26.029Z,4.35
2023-03-14T09:15:53.693Z,3.75
2023-03-14T09:18:20.634Z,4.60
2023-03-14T09:20:47.168Z,3.90
2023-03-14T09:23:13.795Z,4.88
2023-03-14T09:25:40.154Z,4.70
2023-03-14T09:28:06.689Z,4.78
2023-03-14T09:30:33.372Z,4.75
2023-03-14T09:33:00.140Z,4.47
2023-03-14T09:35:27.572Z,4.80
2023-03-14T09:37:53.993Z,4.95
2023-03-14T09:40:21.370Z,4.90
2023-03-14T09:42:54.887Z,4.63
2023-03-14T09:45:34.970Z,5.07
2023-03-14T09:48:02.628Z,5.10
2023-03-14T09:50:37.460Z,4.88
2023-03-14T09:53:07.750Z,6.78
2023-03-14T09:55:36.712Z,8.02
2023-03-14T09:58:06.087Z,7.00
2023-03-14T10:00:32.764Z,7.07
2023-03-14T10:03:18.205Z,3.20
2023-03-14T10:05:44.689Z,2.00
2023-03-14T10:08:12.614Z,1.83
2023-03-14T10:10:39.624Z,1.50
2023-03-14T10:13:25.370Z,1.30
2023-03-14T10:15:59.520Z,1.40
2023-03-14T10:18:29.065Z,1.27
2023-03-14T10:21:19.623Z,1.70
2023-03-14T10:23:50.387Z,1.30
2023-03-14T10:26:30.218Z,1.17
2023-03-14T10:29:15.850Z,1.10
2023-03-14T10:34:27.633Z,1.10
2023-03-14T10:37:07.627Z,1.08
2023-03-14T10:39:43.173Z,1.20
2023-03-14T10:42:25.055Z,1.00
2023-03-14T10:45:02.119Z,1.30
2023-03-14T10:47:29.540Z,1.05
2023-03-14T10:49:57.043Z,0.80
2023-03-14T10:52:46.051Z,0.90
2023-03-14T10:55:15.481Z,1.15
2023-03-14T10:57:43.428Z,1.17
2023-03-14T11:00:17.924Z,1.02
2023-03-14T11:03:09.485Z,0.88
2023-03-14T11:05:47.130Z,1.15
2023-03-14T11:08:24.475Z,1.30
2023-03-14T11:11:00.250Z,0.88
2023-03-14T11:13:35.413Z,1.13
2023-03-14T11:16:40.857Z,1.67
2023-03-14T11:19:26.285Z,1.73
2023-03-14T11:22:07.652Z,1.10
2023-03-14T11:24:43.207Z,1.13
2023-03-14T11:27:22.067Z,1.10
2023-03-14T11:30:19.473Z,1.13
2023-03-14T11:32:50.663Z,2.25
2023-03-14T11:35:42.693Z,1.20
2023-03-14T11:38:16.749Z,1.50
2023-03-14T11:40:45.541Z,1.15
2023-03-14T11:43:27.954Z,2.10
2023-03-14T11:46:01.930Z,1.60
2023-03-14T11:48:38.074Z,1.33
2023-03-14T11:51:12.120Z,1.70
2023-03-14T11:53:51.863Z,1.55
2023-03-14T11:56:54.458Z,1.33
2023-03-14T11:59:28.400Z,1.50
2023-03-14T12:02:05.188Z,1.40
2023-03-14T12:05:17.605Z,1.75
2023-03-14T12:08:09.163Z,1.55
2023-03-14T12:10:51.256Z,1.67
2023-03-14T12:13:18.605Z,1.42
2023-03-14T12:15:57.157Z,2.00
2023-03-14T12:18:39.495Z,1.85
2023-03-14T12:21:10.201Z,2.13
2023-03-14T12:23:45.941Z,1.60
2023-03-14T12:26:12.294Z,2.03
2023-03-14T12:29:00.099Z,2.10
2023-03-14T12:31:30.630Z,2.75
2023-03-14T12:34:22.340Z,1.92
2023-03-14T12:36:51.576Z,2.40
2023-03-14T12:39:40.795Z,1.80
2023-03-14T12:42:17.151Z,2.13
2023-03-14T12:44:46.318Z,1.98
2023-03-14T12:47:18.414Z,2.47
2023-03-14T12:49:47.322Z,2.13
2023-03-14T12:52:43.533Z,2.20
2023-03-14T12:55:29.895Z,2.67
2023-03-14T12:58:22.261Z,2.20
2023-03-14T13:00:56.516Z,2.58
2023-03-14T13:03:28.274Z,2.30
2023-03-14T13:06:02.766Z,2.33
2023-03-14T13:08:40.703Z,1.83
2023-03-14T13:11:11.545Z,2.70
2023-03-14T13:13:44.032Z,2.90
2023-03-14T13:16:16.693Z,2.60
2023-03-14T13:18:45.713Z,2.15
2023-03-14T13:21:20.502Z,2.22
2023-03-14T13:24:19.364Z,2.70
2023-03-14T13:26:47.020Z,2.80
2023-03-14T13:29:25.824Z,3.22
2023-03-14T13:31:58.703Z,3.53
2023-03-14T13:34:33.364Z,2.53
2023-03-14T13:37:00.262Z,3.03
2023-03-14T13:39:30.010Z,2.80
2023-03-14T13:42:00.365Z,2.78
2023-03-14T13:44:40.570Z,2.25
2023-03-14T13:47:14.152Z,2.70
2023-03-14T13:49:40.831Z,2.20
2023-03-14T13:52:22.867Z,2.90
2023-03-14T13:54:49.235Z,2.35
2023-03-14T13:57:15.668Z,2.22
2023-03-14T13:59:42.075Z,2.50
2023-03-14T14:02:17.984Z,2.35
2023-03-14T14:04:45.216Z,2.42
2023-03-14T14:07:19.056Z,2.70
2023-03-14T14:09:50.429Z,2.60
2023-03-14T14:12:22.596Z,2.88
2023-03-14T14:14:55.880Z,2.15
2023-03-14T14:17:44.902Z,2.10
2023-03-14T14:20:24.041Z,2.33
2023-03-14T14:22:51.341Z,2.05
2023-03-14T14:25:18.100Z,2.30
2023-03-14T14:27:49.203Z,2.00
2023-03-14T14:30:18.326Z,2.60
2023-03-14T14:32:46.073Z,2.50
2023-03-14T14:35:24.677Z,3.17
2023-03-14T14:37:51.373Z,2.75
2023-03-14T14:40:22.205Z,2.13
2023-03-14T14:42:50.008Z,2.38
2023-03-14T14:45:25.301Z,2.33
2023-03-14T14:48:02.154Z,2.55
2023-03-14T14:50:38.564Z,1.95
2023-03-14T14:53:24.712Z,2.25
2023-03-14T14:55:52.963Z,2.22
2023-03-14T14:58:38.887Z,1.90
2023-03-14T15:01:19.019Z,2.25
2023-03-14T15:03:48.306Z,1.88
2023-03-14T15:06:16.518Z,1.70
2023-03-14T15:08:48.134Z,2.08
2023-03-14T15:11:23.690Z,1.60
2023-03-14T15:13:51.160Z,1.80
2023-03-14T15:16:21.604Z,1.95
2023-03-14T15:18:56.329Z,2.20
2023-03-14T15:21:23.787Z,2.60
2023-03-14T15:23:50.632Z,2.35
2023-03-14T15:26:20.220Z,2.33
2023-03-14T15:28:47.281Z,2.30
2023-03-14T15:31:15.990Z,2.42
2023-03-14T15:33:44.423Z,2.20
2023-03-14T15:36:25.503Z,2.50
2023-03-14T15:38:56.157Z,2.00
2023-03-14T15:41:23.304Z,2.50
2023-03-14T15:43:50.224Z,2.40
2023-03-14T15:46:18.241Z,2.60
2023-03-14T15:48:45.991Z,2.60
2023-03-14T15:51:12.582Z,2.55
2023-03-14T15:53:39.553Z,2.80
2023-03-14T15:56:07.357Z,2.88
2023-03-14T15:58:34.970Z,2.00
2023-03-14T16:01:02.730Z,2.58
2023-03-14T16:03:30.344Z,2.83
2023-03-14T16:05:56.730Z,2.72
2023-03-14T16:08:26.137Z,3.15
2023-03-14T16:10:52.885Z,2.70
2023-03-14T16:13:19.521Z,2.40
2023-03-14T16:15:56.830Z,2.30
2023-03-14T16:18:23.766Z,2.50
2023-03-14T16:21:00.680Z,2.83
2023-03-14T16:23:28.618Z,2.40
2023-03-14T16:25:55.769Z,2.42
2023-03-14T16:28:22.880Z,3.03
2023-03-14T16:30:49.314Z,2.10
2023-03-14T16:33:16.721Z,2.72
2023-03-14T16:36:06.125Z,2.53
2023-03-14T16:38:34.113Z,3.72
2023-03-14T16:41:06.128Z,2.47
2023-03-14T16:43:33.961Z,2.63
2023-03-14T16:46:02.182Z,2.70
2023-03-14T16:48:29.178Z,2.90
2023-03-14T16:50:56.016Z,2.67
2023-03-14T16:53:23.246Z,2.47
2023-03-14T16:55:51.133Z,3.22
2023-03-14T16:58:18.060Z,2.40
2023-03-14T17:00:46.297Z,2.20
2023-03-14T17:03:12.788Z,2.33
2023-03-14T17:05:45.569Z,2.95
2023-03-14T17:08:12.063Z,2.08
2023-03-14T17:10:39.802Z,2.17
2023-03-14T17:13:06.320Z,2.47
2023-03-14T17:15:33.094Z,2.65
2023-03-14T17:17:59.588Z,3.40
2023-03-14T17:20:26.095Z,2.70
2023-03-14T17:22:52.490Z,2.47
2023-03-14T17:25:18.877Z,2.60
2023-03-14T17:27:46.317Z,2.67
2023-03-14T17:30:13.589Z,2.88
2023-03-14T17:32:40.359Z,2.65
2023-03-14T17:35:07.927Z,2.30
2023-03-14T17:37:34.418Z,2.67
2023-03-14T17:40:03.307Z,2.63
2023-03-14T17:42:31.216Z,3.13
2023-03-14T17:44:58.572Z,3.72
2023-03-14T17:47:24.944Z,3.00
2023-03-14T17:49:51.305Z,2.38
2023-03-14T17:52:17.730Z,2.80
2023-03-14T17:54:44.143Z,2.80
2023-03-14T17:57:10.633Z,2.40
2023-03-14T17:59:36.998Z,2.30
2023-03-14T18:02:03.626Z,3.13
2023-03-14T18:04:30.261Z,3.10
2023-03-14T18:06:56.684Z,3.60
2023-03-14T18:09:23.172Z,2.67
2023-03-14T18:11:56.157Z,2.65
2023-03-14T18:14:25.397Z,3.05
2023-03-14T18:16:53.501Z,2.55
2023-03-14T18:19:19.944Z,2.75
2023-03-14T18:21:47.375Z,2.80
2023-03-14T18:24:13.782Z,2.90
2023-03-14T18:26:40.158Z,3.15
2023-03-14T18:29:06.766Z,2.42
2023-03-14T18:31:34.745Z,3.13
2023-03-14T18:34:01.595Z,2.78
2023-03-14T18:36:28.317Z,3.28
2023-03-14T18:38:56.623Z,2.90
2023-03-14T18:41:24.082Z,2.38
2023-03-14T18:43:52.251Z,3.15
2023-03-14T18:46:20.541Z,2.83
2023-03-14T18:48:47.377Z,2.30
2023-03-14T18:51:15.534Z,3.05
2023-03-14T18:53:43.256Z,2.50
2023-03-14T18:56:12.757Z,3.17
2023-03-14T18:58:40.769Z,2.92
2023-03-14T19:01:07.535Z,2.95
2023-03-14T19:03:35.100Z,2.75
2023-03-14T19:06:07.761Z,2.47
2023-03-14T19:08:36.714Z,2.63
2023-03-14T19:11:05.494Z,2.50
2023-03-14T19:13:32.961Z,2.67
2023-03-14T19:16:00.177Z,2.85
2023-03-14T19:18:28.034Z,2.78
2023-03-14T19:20:59.691Z,2.38
2023-03-14T19:23:27.017Z,2.55
2023-03-14T19:25:54.694Z,2.95
2023-03-14T19:28:22.629Z,3.13
2023-03-14T19:30:49.500Z,2.90
2023-03-14T19:33:17.037Z,2.35
2023-03-14T19:35:44.445Z,2.58
2023-03-14T19:38:11.200Z,3.60
2023-03-14T19:40:38.897Z,2.85
2023-03-14T19:43:06.338Z,3.25
2023-03-14T19:45:36.212Z,2.88
2023-03-14T19:48:05.665Z,2.60
2023-03-14T19:50:32.697Z,3.83
2023-03-14T19:52:59.245Z,3.17
2023-03-14T19:55:26.554Z,3.30
2023-03-14T19:57:53.187Z,2.25
2023-03-14T20:00:22.068Z,2.67
2023-03-14T20:02:51.697Z,3.88
2023-03-14T20:05:20.196Z,3.30
2023-03-14T20:07:46.910Z,2.63
2023-03-14T20:10:16.592Z,2.97
2023-03-14T20:12:43.810Z,2.63
2023-03-14T20:15:12.662Z,2.67
2023-03-14T20:17:39.081Z,2.35
2023-03-14T20:20:07.924Z,2.10
2023-03-14T20:22:36.359Z,2.80
2023-03-14T20:25:04.997Z,2.40
2023-03-14T20:27:33.072Z,3.25
2023-03-14T20:30:02.122Z,2.53
2023-03-14T20:32:29.041Z,2.13
2023-03-14T20:34:55.438Z,3.22
2023-03-14T20:37:24.799Z,2.97
2023-03-14T20:39:51.241Z,2.58
2023-03-14T20:42:21.304Z,2.60
2023-03-14T20:44:47.671Z,2.78
2023-03-14T20:47:14.070Z,2.63
2023-03-14T20:49:40.428Z,2.17
2023-03-14T20:52:06.781Z,2.28
2023-03-14T20:54:33.209Z,2.47
2023-03-14T20:56:59.625Z,2.42
2023-03-14T20:59:27.979Z,2.10
2023-03-14T21:01:55.552Z,2.58
2023-03-14T21:04:22.044Z,2.92
2023-03-14T21:06:48.523Z,2.28
2023-03-14T21:09:14.920Z,2.22
2023-03-14T21:11:46.959Z,2.85
2023-03-14T21:14:13.598Z,2.83
2023-03-14T21:16:40.148Z,2.60
2023-03-14T21:19:06.505Z,2.90
2023-03-14T21:21:32.874Z,3.65
2023-03-14T21:24:02.172Z,2.63
2023-03-14T21:26:28.545Z,2.60
2023-03-14T21:28:54.934Z,2.20
2023-03-14T21:31:21.402Z,2.33
2023-03-14T21:33:48.930Z,2.28
2023-03-14T21:36:15.454Z,2.22
2023-03-14T21:38:42.135Z,2.20
2023-03-14T21:41:08.661Z,2.25
2023-03-14T21:43:35.075Z,2.30
2023-03-14T21:46:01.484Z,2.38
2023-03-14T21:48:27.993Z,2.30
2023-03-14T21:50:54.406Z,2.10
2023-03-14T21:53:20.785Z,2.05
2023-03-14T21:55:47.530Z,2.70
2023-03-14T21:58:15.051Z,3.00
2023-03-14T22:00:48.754Z,2.75
2023-03-14T22:03:20.087Z,3.20
2023-03-14T22:05:47.529Z,2.35
2023-03-14T22:08:15.662Z,1.95
2023-03-14T22:10:44.789Z,3.20
2023-03-14T22:13:11.311Z,2.47
2023-03-14T22:15:37.864Z,2.20
2023-03-14T22:18:04.316Z,2.10
2023-03-14T22:20:30.719Z,2.33
2023-03-14T22:22:57.241Z,2.55
2023-03-14T22:25:23.584Z,2.78
2023-03-14T22:27:49.966Z,2.10
2023-03-14T22:30:16.446Z,2.45
2023-03-14T22:32:42.847Z,2.55
2023-03-14T22:35:09.861Z,2.60
2023-03-14T22:37:36.581Z,2.50
2023-03-14T22:40:03.651Z,3.47
2023-03-14T22:42:30.122Z,2.67
2023-03-14T22:44:56.500Z,2.65
2023-03-14T22:47:22.876Z,2.88
2023-03-14T22:49:49.271Z,2.50
2023-03-14T22:52:15.750Z,2.42
2023-03-14T22:54:42.108Z,2.55
2023-03-14T22:57:08.494Z,2.20
2023-03-14T22:59:34.950Z,3.08
2023-03-14T23:02:01.467Z,3.67
2023-03-14T23:04:27.911Z,2.55
2023-03-14T23:06:54.351Z,2.97
2023-03-14T23:09:21.392Z,2.55
2023-03-14T23:11:47.782Z,2.35
2023-03-14T23:14:15.258Z,2.33
2023-03-14T23:16:41.698Z,3.40
2023-03-14T23:19:09.836Z,2.60
2023-03-14T23:21:36.710Z,2.63
2023-03-14T23:24:05.731Z,2.45
2023-03-14T23:26:35.259Z,2.42
2023-03-14T23:29:05.345Z,2.22
2023-03-14T23:31:32.901Z,2.00
2023-03-14T23:33:59.273Z,2.03
2023-03-14T23:36:25.760Z,2.17
2023-03-14T23:38:52.165Z,3.28
2023-03-14T23:41:18.556Z,2.20
2023-03-14T23:43:46.327Z,2.42
2023-03-14T23:46:13.512Z,2.42
2023-03-14T23:48:40.249Z,2.13
2023-03-14T23:51:09.003Z,1.95
2023-03-14T23:53:35.441Z,2.28
2023-03-14T23:56:02.281Z,3.33
2023-03-14T23:58:29.694Z,2.10
